sensor_id;sensor_type;location;lat;lon;timestamp;temperature;humidity
40996;DHT22;26723;57.478;12.066;2023-03-11T00:02:36;-1.30;99.90
40996;DHT22;26723;57.478;12.066;2023-03-11T00:05:46;-1.30;99.90
40996;DHT22;26723;57.478;12.066;2023-03-11T00:08:54;-1.20;99.90
40996;DHT22;26723;57.478;12.066;2023-03-11T00:12:05;-1.10;99.90
40996;DHT22;26723;57.478;12.066;2023-03-11T00:15:18;-1.20;99.90
40996;DHT22;26723;57.478;12.066;2023-03-11T00:18:28;-1.20;99.90
40996;DHT22;26723;57.478;12.066;2023-03-11T00:21:39;-1.20;99.90
40996;DHT22;26723;57.478;12.066;2023-03-11T00:24:49;-1.30;99.90
40996;DHT22;26723;57.478;12.066;2023-03-11T00:27:58;-1.30;99.90
40996;DHT22;26723;57.478;12.066;2023-03-11T00:31:10;-1.30;99.90
40996;DHT22;26723;57.478;12.066;2023-03-11T00:34:19;-1.30;99.90
40996;DHT22;26723;57.478;12.066;2023-03-11T00:37:27;-1.30;99.90
40996;DHT22;26723;57.478;12.066;2023-03-11T00:40:38;-1.20;99.90
40996;DHT22;26723;57.478;12.066;2023-03-11T00:43:48;-1.20;99.90
40996;DHT22;26723;57.478;12.066;2023-03-11T00:46:58;-1.30;99.90
40996;DHT22;26723;57.478;12.066;2023-03-11T00:50:08;-1.30;99.90
40996;DHT22;26723;57.478;12.066;2023-03-11T00:53:19;-1.20;99.90
40996;DHT22;26723;57.478;12.066;2023-03-11T00:56:27;-1.20;99.90
40996;DHT22;26723;57.478;12.066;2023-03-11T00:59:37;-1.30;99.90
40996;DHT22;26723;57.478;12.066;2023-03-11T01:02:47;-1.30;99.90
40996;DHT22;26723;57.478;12.066;2023-03-11T01:05:56;-1.40;99.90
40996;DHT22;26723;57.478;12.066;2023-03-11T01:09:05;-1.40;99.90
40996;DHT22;26723;57.478;12.066;2023-03-11T01:12:16;-1.30;99.90
40996;DHT22;26723;57.478;12.066;2023-03-11T01:15:27;-1.40;99.90
40996;DHT22;26723;57.478;12.066;2023-03-11T01:18:39;-1.30;99.90
40996;DHT22;26723;57.478;12.066;2023-03-11T01:21:48;-1.40;99.90
40996;DHT22;26723;57.478;12.066;2023-03-11T01:24:57;-1.40;99.90
40996;DHT22;26723;57.478;12.066;2023-03-11T01:28:07;-1.40;99.90
40996;DHT22;26723;57.478;12.066;2023-03-11T01:31:16;-1.40;99.90
40996;DHT22;26723;57.478;12.066;2023-03-11T01:34:27;-1.40;99.90
40996;DHT22;26723;57.478;12.066;2023-03-11T01:37:37;-1.40;99.90
40996;DHT22;26723;57.478;12.066;2023-03-11T01:40:48;-1.50;99.90
40996;DHT22;26723;57.478;12.066;2023-03-11T01:43:57;-1.50;99.90
40996;DHT22;26723;57.478;12.066;2023-03-11T01:47:34;-1.50;99.90
40996;DHT22;26723;57.478;12.066;2023-03-11T01:50:48;-1.50;99.90
40996;DHT22;26723;57.478;12.066;2023-03-11T01:54:03;-1.50;99.90
40996;DHT22;26723;57.478;12.066;2023-03-11T01:57:16;-1.50;99.90
40996;DHT22;26723;57.478;12.066;2023-03-11T02:00:25;-1.50;99.90
40996;DHT22;26723;57.478;12.066;2023-03-11T02:03:36;-1.50;99.90
40996;DHT22;26723;57.478;12.066;2023-03-11T02:06:47;-1.50;99.90
40996;DHT22;26723;57.478;12.066;2023-03-11T02:09:57;-1.60;99.90
40996;DHT22;26723;57.478;12.066;2023-03-11T02:13:09;-1.60;99.90
40996;DHT22;26723;57.478;12.066;2023-03-11T02:16:18;-1.70;99.90
40996;DHT22;26723;57.478;12.066;2023-03-11T02:19:31;-1.60;99.90
40996;DHT22;26723;57.478;12.066;2023-03-11T02:22:47;-1.70;99.90
40996;DHT22;26723;57.478;12.066;2023-03-11T02:26:03;-1.70;99.90
40996;DHT22;26723;57.478;12.066;2023-03-11T02:29:18;-1.70;99.90
40996;DHT22;26723;57.478;12.066;2023-03-11T02:32:30;-1.60;99.90
40996;DHT22;26723;57.478;12.066;2023-03-11T02:35:39;-1.60;99.90
40996;DHT22;26723;57.478;12.066;2023-03-11T02:38:49;-1.70;99.90
40996;DHT22;26723;57.478;12.066;2023-03-11T02:41:57;-1.60;99.90
40996;DHT22;26723;57.478;12.066;2023-03-11T02:45:10;-1.70;99.90
40996;DHT22;26723;57.478;12.066;2023-03-11T02:48:20;-1.60;99.90
40996;DHT22;26723;57.478;12.066;2023-03-11T02:51:29;-1.70;99.90
40996;DHT22;26723;57.478;12.066;2023-03-11T02:54:39;-1.70;99.90
40996;DHT22;26723;57.478;12.066;2023-03-11T02:57:54;-1.60;99.90
40996;DHT22;26723;57.478;12.066;2023-03-11T03:01:05;-1.60;99.90
40996;DHT22;26723;57.478;12.066;2023-03-11T03:04:14;-1.60;99.90
40996;DHT22;26723;57.478;12.066;2023-03-11T03:07:22;-1.70;99.90
40996;DHT22;26723;57.478;12.066;2023-03-11T03:10:31;-1.70;99.90
40996;DHT22;26723;57.478;12.066;2023-03-11T03:13:39;-1.70;99.90
40996;DHT22;26723;57.478;12.066;2023-03-11T03:16:50;-1.70;99.90
40996;DHT22;26723;57.478;12.066;2023-03-11T03:19:59;-1.70;99.90
40996;DHT22;26723;57.478;12.066;2023-03-11T03:23:08;-1.70;99.90
40996;DHT22;26723;57.478;12.066;2023-03-11T03:26:17;-1.70;99.90
40996;DHT22;26723;57.478;12.066;2023-03-11T03:29:29;-1.70;99.90
40996;DHT22;26723;57.478;12.066;2023-03-11T03:32:40;-1.70;99.90
40996;DHT22;26723;57.478;12.066;2023-03-11T03:35:51;-1.70;99.90
40996;DHT22;26723;57.478;12.066;2023-03-11T03:39:05;-1.60;99.90
40996;DHT22;26723;57.478;12.066;2023-03-11T03:42:16;-1.70;99.90
40996;DHT22;26723;57.478;12.066;2023-03-11T03:45:26;-1.70;99.90
40996;DHT22;26723;57.478;12.066;2023-03-11T03:48:37;-1.60;99.90
40996;DHT22;26723;57.478;12.066;2023-03-11T03:51:47;-1.60;99.90
40996;DHT22;26723;57.478;12.066;2023-03-11T03:55:16;-1.70;99.90
40996;DHT22;26723;57.478;12.066;2023-03-11T03:58:25;-1.70;99.90
40996;DHT22;26723;57.478;12.066;2023-03-11T04:01:34;-1.70;99.90
40996;DHT22;26723;57.478;12.066;2023-03-11T04:04:44;-1.70;99.90
40996;DHT22;26723;57.478;12.066;2023-03-11T04:07:52;-1.70;99.90
40996;DHT22;26723;57.478;12.066;2023-03-11T04:11:02;-1.70;99.90
40996;DHT22;26723;57.478;12.066;2023-03-11T04:14:13;-1.70;99.90
40996;DHT22;26723;57.478;12.066;2023-03-11T04:17:30;-1.80;99.90
40996;DHT22;26723;57.478;12.066;2023-03-11T04:20:41;-1.70;99.90
40996;DHT22;26723;57.478;12.066;2023-03-11T04:23:53;-1.80;99.90
40996;DHT22;26723;57.478;12.066;2023-03-11T04:27:07;-1.90;99.90
40996;DHT22;26723;57.478;12.066;2023-03-11T04:30:19;-1.80;99.90
40996;DHT22;26723;57.478;12.066;2023-03-11T04:33:32;-1.90;99.90
40996;DHT22;26723;57.478;12.066;2023-03-11T04:36:42;-2.00;99.90
40996;DHT22;26723;57.478;12.066;2023-03-11T04:39:54;-2.00;99.90
40996;DHT22;26723;57.478;12.066;2023-03-11T04:43:04;-2.20;99.90
40996;DHT22;26723;57.478;12.066;2023-03-11T04:46:15;-2.20;99.90
40996;DHT22;26723;57.478;12.066;2023-03-11T04:49:25;-2.10;99.90
40996;DHT22;26723;57.478;12.066;2023-03-11T04:52:35;-2.10;99.90
40996;DHT22;26723;57.478;12.066;2023-03-11T04:55:45;-2.10;99.90
40996;DHT22;26723;57.478;12.066;2023-03-11T04:58:54;-2.20;99.90
40996;DHT22;26723;57.478;12.066;2023-03-11T05:02:06;-2.20;99.90
40996;DHT22;26723;57.478;12.066;2023-03-11T05:05:18;-2.30;99.90
40996;DHT22;26723;57.478;12.066;2023-03-11T05:08:29;-2.40;99.90
40996;DHT22;26723;57.478;12.066;2023-03-11T05:11:38;-2.40;99.90
40996;DHT22;26723;57.478;12.066;2023-03-11T05:14:47;-2.60;99.90
40996;DHT22;26723;57.478;12.066;2023-03-11T05:17:56;-2.80;99.90
40996;DHT22;26723;57.478;12.066;2023-03-11T05:21:05;-2.90;99.90
40996;DHT22;26723;57.478;12.066;2023-03-11T05:24:17;-3.00;99.90
40996;DHT22;26723;57.478;12.066;2023-03-11T05:27:27;-3.10;99.90
40996;DHT22;26723;57.478;12.066;2023-03-11T05:30:36;-3.20;99.90
40996;DHT22;26723;57.478;12.066;2023-03-11T05:33:46;-3.30;99.90
40996;DHT22;26723;57.478;12.066;2023-03-11T05:36:54;-3.30;99.90
40996;DHT22;26723;57.478;12.066;2023-03-11T05:40:12;-3.40;99.90
40996;DHT22;26723;57.478;12.066;2023-03-11T05:43:21;-3.40;99.90
40996;DHT22;26723;57.478;12.066;2023-03-11T05:46:33;-3.40;99.90
40996;DHT22;26723;57.478;12.066;2023-03-11T05:49:46;-3.50;99.90
40996;DHT22;26723;57.478;12.066;2023-03-11T05:52:56;-3.60;99.90
40996;DHT22;26723;57.478;12.066;2023-03-11T05:56:09;-3.60;99.90
40996;DHT22;26723;57.478;12.066;2023-03-11T05:59:18;-3.50;99.90
40996;DHT22;26723;57.478;12.066;2023-03-11T06:02:33;-3.70;99.90
40996;DHT22;26723;57.478;12.066;2023-03-11T06:05:45;-3.90;99.90
40996;DHT22;26723;57.478;12.066;2023-03-11T06:08:54;-3.80;99.90
40996;DHT22;26723;57.478;12.066;2023-03-11T06:12:09;-3.70;99.90
40996;DHT22;26723;57.478;12.066;2023-03-11T06:15:39;-3.60;99.90
40996;DHT22;26723;57.478;12.066;2023-03-11T06:18:50;-3.60;99.90
40996;DHT22;26723;57.478;12.066;2023-03-11T06:21:59;-3.40;99.90
40996;DHT22;26723;57.478;12.066;2023-03-11T06:25:09;-0.40;99.90
40996;DHT22;26723;57.478;12.066;2023-03-11T06:28:21;2.00;99.90
40996;DHT22;26723;57.478;12.066;2023-03-11T06:31:31;3.50;99.90
40996;DHT22;26723;57.478;12.066;2023-03-11T06:34:49;4.50;99.90
40996;DHT22;26723;57.478;12.066;2023-03-11T06:37:58;5.50;99.90
40996;DHT22;26723;57.478;12.066;2023-03-11T06:41:07;6.20;99.90
40996;DHT22;26723;57.478;12.066;2023-03-11T06:44:17;7.00;99.90
40996;DHT22;26723;57.478;12.066;2023-03-11T06:47:26;7.50;99.90
40996;DHT22;26723;57.478;12.066;2023-03-11T06:50:35;8.10;99.90
40996;DHT22;26723;57.478;12.066;2023-03-11T06:53:47;8.80;99.90
40996;DHT22;26723;57.478;12.066;2023-03-11T06:56:59;9.20;99.90
40996;DHT22;26723;57.478;12.066;2023-03-11T07:00:12;9.70;99.90
40996;DHT22;26723;57.478;12.066;2023-03-11T07:03:26;10.30;99.90
40996;DHT22;26723;57.478;12.066;2023-03-11T07:06:34;10.80;99.90
40996;DHT22;26723;57.478;12.066;2023-03-11T07:09:54;11.30;99.90
40996;DHT22;26723;57.478;12.066;2023-03-11T07:13:03;11.60;99.90
40996;DHT22;26723;57.478;12.066;2023-03-11T07:16:19;11.90;99.90
40996;DHT22;26723;57.478;12.066;2023-03-11T07:19:29;12.60;99.90
40996;DHT22;26723;57.478;12.066;2023-03-11T07:22:39;12.80;99.90
40996;DHT22;26723;57.478;12.066;2023-03-11T07:25:48;13.00;99.20
40996;DHT22;26723;57.478;12.066;2023-03-11T07:28:59;12.40;99.90
40996;DHT22;26723;57.478;12.066;2023-03-11T07:32:15;13.80;98.40
40996;DHT22;26723;57.478;12.066;2023-03-11T07:35:25;14.00;97.20
40996;DHT22;26723;57.478;12.066;2023-03-11T07:38:34;13.40;97.40
40996;DHT22;26723;57.478;12.066;2023-03-11T07:41:42;13.60;96.80
40996;DHT22;26723;57.478;12.066;2023-03-11T07:44:51;14.50;96.80
40996;DHT22;26723;57.478;12.066;2023-03-11T07:48:04;14.50;96.80
40996;DHT22;26723;57.478;12.066;2023-03-11T07:51:17;15.00;93.50
40996;DHT22;26723;57.478;12.066;2023-03-11T07:54:26;15.60;95.10
40996;DHT22;26723;57.478;12.066;2023-03-11T07:57:35;16.30;91.50
40996;DHT22;26723;57.478;12.066;2023-03-11T08:00:43;16.50;92.50
40996;DHT22;26723;57.478;12.066;2023-03-11T08:03:53;16.90;91.30
40996;DHT22;26723;57.478;12.066;2023-03-11T08:07:05;17.40;90.10
40996;DHT22;26723;57.478;12.066;2023-03-11T08:10:13;17.00;90.70
40996;DHT22;26723;57.478;12.066;2023-03-11T08:13:23;17.40;88.50
40996;DHT22;26723;57.478;12.066;2023-03-11T08:16:32;17.00;87.00
40996;DHT22;26723;57.478;12.066;2023-03-11T08:19:43;16.90;86.30
40996;DHT22;26723;57.478;12.066;2023-03-11T08:22:54;17.60;85.90
40996;DHT22;26723;57.478;12.066;2023-03-11T08:26:08;17.50;84.00
40996;DHT22;26723;57.478;12.066;2023-03-11T08:29:17;17.40;82.80
40996;DHT22;26723;57.478;12.066;2023-03-11T08:32:25;17.80;81.30
40996;DHT22;26723;57.478;12.066;2023-03-11T08:35:38;18.00;78.60
40996;DHT22;26723;57.478;12.066;2023-03-11T08:38:47;17.40;78.50
40996;DHT22;26723;57.478;12.066;2023-03-11T08:41:56;18.30;79.50
40996;DHT22;26723;57.478;12.066;2023-03-11T08:45:07;18.30;77.60
40996;DHT22;26723;57.478;12.066;2023-03-11T08:48:18;17.70;76.90
40996;DHT22;26723;57.478;12.066;2023-03-11T08:51:29;18.20;75.50
40996;DHT22;26723;57.478;12.066;2023-03-11T08:54:38;17.70;77.70
40996;DHT22;26723;57.478;12.066;2023-03-11T08:57:46;17.60;77.30
40996;DHT22;26723;57.478;12.066;2023-03-11T09:00:54;16.40;75.80
40996;DHT22;26723;57.478;12.066;2023-03-11T09:04:05;15.60;84.30
40996;DHT22;26723;57.478;12.066;2023-03-11T09:07:14;13.80;82.20
40996;DHT22;26723;57.478;12.066;2023-03-11T09:10:23;13.90;86.20
40996;DHT22;26723;57.478;12.066;2023-03-11T09:13:32;13.90;86.00
40996;DHT22;26723;57.478;12.066;2023-03-11T09:16:41;13.70;88.00
40996;DHT22;26723;57.478;12.066;2023-03-11T09:19:53;13.00;83.50
40996;DHT22;26723;57.478;12.066;2023-03-11T09:23:04;11.90;87.70
40996;DHT22;26723;57.478;12.066;2023-03-11T09:26:16;12.70;85.80
40996;DHT22;26723;57.478;12.066;2023-03-11T09:29:26;12.60;86.00
40996;DHT22;26723;57.478;12.066;2023-03-11T09:32:39;12.50;87.40
40996;DHT22;26723;57.478;12.066;2023-03-11T09:35:48;12.40;86.80
40996;DHT22;26723;57.478;12.066;2023-03-11T09:38:59;12.20;87.30
40996;DHT22;26723;57.478;12.066;2023-03-11T09:42:17;12.20;87.50
40996;DHT22;26723;57.478;12.066;2023-03-11T09:45:30;12.30;90.00
40996;DHT22;26723;57.478;12.066;2023-03-11T09:48:47;12.40;91.40
40996;DHT22;26723;57.478;12.066;2023-03-11T09:52:02;11.40;89.70
40996;DHT22;26723;57.478;12.066;2023-03-11T09:55:33;10.80;91.40
40996;DHT22;26723;57.478;12.066;2023-03-11T09:58:46;10.30;91.80
40996;DHT22;26723;57.478;12.066;2023-03-11T10:01:55;10.70;91.20
40996;DHT22;26723;57.478;12.066;2023-03-11T10:05:08;10.90;92.20
40996;DHT22;26723;57.478;12.066;2023-03-11T10:08:26;10.00;92.30
40996;DHT22;26723;57.478;12.066;2023-03-11T10:11:58;10.30;91.50
40996;DHT22;26723;57.478;12.066;2023-03-11T10:15:18;9.90;94.30
40996;DHT22;26723;57.478;12.066;2023-03-11T10:18:49;9.80;93.30
40996;DHT22;26723;57.478;12.066;2023-03-11T10:22:10;9.90;93.80
40996;DHT22;26723;57.478;12.066;2023-03-11T10:25:23;10.10;94.00
40996;DHT22;26723;57.478;12.066;2023-03-11T10:28:36;9.10;93.90
40996;DHT22;26723;57.478;12.066;2023-03-11T10:31:55;9.20;95.70
40996;DHT22;26723;57.478;12.066;2023-03-11T10:35:15;9.00;97.90
40996;DHT22;26723;57.478;12.066;2023-03-11T10:38:26;8.70;95.60
40996;DHT22;26723;57.478;12.066;2023-03-11T10:41:41;8.40;97.60
40996;DHT22;26723;57.478;12.066;2023-03-11T10:45:00;8.90;98.00
40996;DHT22;26723;57.478;12.066;2023-03-11T10:48:09;8.50;98.10
40996;DHT22;26723;57.478;12.066;2023-03-11T10:51:19;8.70;99.90
40996;DHT22;26723;57.478;12.066;2023-03-11T10:54:32;8.60;98.90
40996;DHT22;26723;57.478;12.066;2023-03-11T10:57:42;8.90;99.90
40996;DHT22;26723;57.478;12.066;2023-03-11T11:01:03;9.10;97.10
40996;DHT22;26723;57.478;12.066;2023-03-11T11:04:34;9.10;97.80
40996;DHT22;26723;57.478;12.066;2023-03-11T11:07:44;9.00;98.20
40996;DHT22;26723;57.478;12.066;2023-03-11T11:10:56;8.60;99.90
40996;DHT22;26723;57.478;12.066;2023-03-11T11:14:06;8.20;99.90
40996;DHT22;26723;57.478;12.066;2023-03-11T11:17:23;8.10;99.90
40996;DHT22;26723;57.478;12.066;2023-03-11T11:20:39;8.00;99.90
40996;DHT22;26723;57.478;12.066;2023-03-11T11:24:04;7.70;99.90
40996;DHT22;26723;57.478;12.066;2023-03-11T11:27:18;7.60;99.90
40996;DHT22;26723;57.478;12.066;2023-03-11T11:30:27;7.90;99.90
40996;DHT22;26723;57.478;12.066;2023-03-11T11:33:49;8.20;99.90
40996;DHT22;26723;57.478;12.066;2023-03-11T11:37:00;8.20;99.00
40996;DHT22;26723;57.478;12.066;2023-03-11T11:40:27;8.20;99.90
40996;DHT22;26723;57.478;12.066;2023-03-11T11:43:45;7.90;98.50
40996;DHT22;26723;57.478;12.066;2023-03-11T11:46:57;7.60;99.60
40996;DHT22;26723;57.478;12.066;2023-03-11T11:50:15;7.80;99.50
40996;DHT22;26723;57.478;12.066;2023-03-11T11:53:30;7.70;99.40
40996;DHT22;26723;57.478;12.066;2023-03-11T11:56:38;7.80;99.60
40996;DHT22;26723;57.478;12.066;2023-03-11T11:59:48;7.90;98.90
40996;DHT22;26723;57.478;12.066;2023-03-11T12:03:13;7.70;99.90
40996;DHT22;26723;57.478;12.066;2023-03-11T12:06:36;7.80;99.40
40996;DHT22;26723;57.478;12.066;2023-03-11T12:09:50;7.40;99.90
40996;DHT22;26723;57.478;12.066;2023-03-11T12:13:13;7.00;99.90
40996;DHT22;26723;57.478;12.066;2023-03-11T12:16:32;7.00;99.90
40996;DHT22;26723;57.478;12.066;2023-03-11T12:19:46;6.90;99.90
40996;DHT22;26723;57.478;12.066;2023-03-11T12:23:28;6.70;99.90
40996;DHT22;26723;57.478;12.066;2023-03-11T12:26:41;6.60;99.90
40996;DHT22;26723;57.478;12.066;2023-03-11T12:29:55;6.60;99.90
40996;DHT22;26723;57.478;12.066;2023-03-11T12:33:10;6.60;99.90
40996;DHT22;26723;57.478;12.066;2023-03-11T12:36:22;6.50;99.90
40996;DHT22;26723;57.478;12.066;2023-03-11T12:39:33;6.20;99.90
40996;DHT22;26723;57.478;12.066;2023-03-11T12:42:41;6.10;99.90
40996;DHT22;26723;57.478;12.066;2023-03-11T12:45:52;5.90;99.90
40996;DHT22;26723;57.478;12.066;2023-03-11T12:49:09;5.80;99.90
40996;DHT22;26723;57.478;12.066;2023-03-11T12:52:24;5.80;99.90
40996;DHT22;26723;57.478;12.066;2023-03-11T12:55:35;6.00;99.90
40996;DHT22;26723;57.478;12.066;2023-03-11T12:59:10;5.90;99.90
40996;DHT22;26723;57.478;12.066;2023-03-11T13:02:31;5.60;99.90
40996;DHT22;26723;57.478;12.066;2023-03-11T13:05:53;5.60;99.90
40996;DHT22;26723;57.478;12.066;2023-03-11T13:09:12;5.40;99.90
40996;DHT22;26723;57.478;12.066;2023-03-11T13:12:39;5.00;99.90
40996;DHT22;26723;57.478;12.066;2023-03-11T13:15:49;5.00;99.90
40996;DHT22;26723;57.478;12.066;2023-03-11T13:19:32;4.80;99.90
40996;DHT22;26723;57.478;12.066;2023-03-11T13:23:09;4.60;99.90
40996;DHT22;26723;57.478;12.066;2023-03-11T13:26:36;4.70;99.90
40996;DHT22;26723;57.478;12.066;2023-03-11T13:29:54;4.80;99.90
40996;DHT22;26723;57.478;12.066;2023-03-11T13:33:16;4.60;99.90
40996;DHT22;26723;57.478;12.066;2023-03-11T13:36:46;4.90;99.90
40996;DHT22;26723;57.478;12.066;2023-03-11T13:40:10;4.90;99.90
40996;DHT22;26723;57.478;12.066;2023-03-11T13:43:22;5.00;99.90
40996;DHT22;26723;57.478;12.066;2023-03-11T13:46:35;5.00;99.90
40996;DHT22;26723;57.478;12.066;2023-03-11T13:49:50;5.10;99.90
40996;DHT22;26723;57.478;12.066;2023-03-11T13:53:02;4.70;99.90
40996;DHT22;26723;57.478;12.066;2023-03-11T13:56:20;4.40;99.90
40996;DHT22;26723;57.478;12.066;2023-03-11T13:59:31;4.50;99.90
40996;DHT22;26723;57.478;12.066;2023-03-11T14:02:44;4.60;99.90
40996;DHT22;26723;57.478;12.066;2023-03-11T14:05:59;4.60;99.90
40996;DHT22;26723;57.478;12.066;2023-03-11T14:09:18;4.60;99.90
40996;DHT22;26723;57.478;12.066;2023-03-11T14:12:30;4.60;99.90
40996;DHT22;26723;57.478;12.066;2023-03-11T14:15:44;4.50;99.90
40996;DHT22;26723;57.478;12.066;2023-03-11T14:19:02;4.60;99.90
40996;DHT22;26723;57.478;12.066;2023-03-11T14:22:13;4.50;99.90
40996;DHT22;26723;57.478;12.066;2023-03-11T14:25:24;4.40;99.90
40996;DHT22;26723;57.478;12.066;2023-03-11T14:28:37;4.40;99.90
40996;DHT22;26723;57.478;12.066;2023-03-11T14:31:47;4.40;99.90
40996;DHT22;26723;57.478;12.066;2023-03-11T14:34:56;4.30;99.90
40996;DHT22;26723;57.478;12.066;2023-03-11T14:38:19;4.30;99.90
40996;DHT22;26723;57.478;12.066;2023-03-11T14:41:28;4.10;99.90
40996;DHT22;26723;57.478;12.066;2023-03-11T14:44:40;3.90;99.90
40996;DHT22;26723;57.478;12.066;2023-03-11T14:47:54;3.80;99.90
40996;DHT22;26723;57.478;12.066;2023-03-11T14:51:07;3.80;99.90
40996;DHT22;26723;57.478;12.066;2023-03-11T14:54:21;3.60;99.90
40996;DHT22;26723;57.478;12.066;2023-03-11T14:57:35;3.00;99.90
40996;DHT22;26723;57.478;12.066;2023-03-11T15:00:48;2.70;99.90
40996;DHT22;26723;57.478;12.066;2023-03-11T15:03:59;2.90;99.90
40996;DHT22;26723;57.478;12.066;2023-03-11T15:07:08;2.70;99.90
40996;DHT22;26723;57.478;12.066;2023-03-11T15:10:17;2.60;99.90
40996;DHT22;26723;57.478;12.066;2023-03-11T15:13:25;2.50;99.90
40996;DHT22;26723;57.478;12.066;2023-03-11T15:16:38;2.40;99.90
40996;DHT22;26723;57.478;12.066;2023-03-11T15:19:46;2.40;99.90
40996;DHT22;26723;57.478;12.066;2023-03-11T15:22:55;2.70;99.90
40996;DHT22;26723;57.478;12.066;2023-03-11T15:26:17;2.80;99.90
40996;DHT22;26723;57.478;12.066;2023-03-11T15:29:30;2.90;99.90
40996;DHT22;26723;57.478;12.066;2023-03-11T15:32:41;3.00;99.90
40996;DHT22;26723;57.478;12.066;2023-03-11T15:35:50;3.10;99.90
40996;DHT22;26723;57.478;12.066;2023-03-11T15:39:16;3.10;99.90
40996;DHT22;26723;57.478;12.066;2023-03-11T15:42:25;3.30;99.90
40996;DHT22;26723;57.478;12.066;2023-03-11T15:45:33;3.40;99.90
40996;DHT22;26723;57.478;12.066;2023-03-11T15:48:45;3.30;99.90
40996;DHT22;26723;57.478;12.066;2023-03-11T15:51:58;3.40;99.90
40996;DHT22;26723;57.478;12.066;2023-03-11T15:55:09;3.30;99.90
40996;DHT22;26723;57.478;12.066;2023-03-11T15:58:19;3.20;99.90
40996;DHT22;26723;57.478;12.066;2023-03-11T16:01:28;3.10;99.90
40996;DHT22;26723;57.478;12.066;2023-03-11T16:04:38;3.10;99.90
40996;DHT22;26723;57.478;12.066;2023-03-11T16:07:47;3.10;99.90
40996;DHT22;26723;57.478;12.066;2023-03-11T16:10:56;3.10;99.90
40996;DHT22;26723;57.478;12.066;2023-03-11T16:14:06;3.10;99.90
40996;DHT22;26723;57.478;12.066;2023-03-11T16:17:17;3.10;99.90
40996;DHT22;26723;57.478;12.066;2023-03-11T16:20:29;3.20;99.90
40996;DHT22;26723;57.478;12.066;2023-03-11T16:23:39;3.10;99.90
40996;DHT22;26723;57.478;12.066;2023-03-11T16:26:58;3.10;99.90
40996;DHT22;26723;57.478;12.066;2023-03-11T16:30:08;3.00;99.90
40996;DHT22;26723;57.478;12.066;2023-03-11T16:33:17;2.90;99.90
40996;DHT22;26723;57.478;12.066;2023-03-11T16:36:27;3.00;99.90
40996;DHT22;26723;57.478;12.066;2023-03-11T16:39:35;2.90;99.90
40996;DHT22;26723;57.478;12.066;2023-03-11T16:42:46;3.00;99.90
40996;DHT22;26723;57.478;12.066;2023-03-11T16:45:54;2.90;99.90
40996;DHT22;26723;57.478;12.066;2023-03-11T16:49:03;2.90;99.90
40996;DHT22;26723;57.478;12.066;2023-03-11T16:52:13;2.90;99.90
40996;DHT22;26723;57.478;12.066;2023-03-11T16:55:26;3.00;99.90
40996;DHT22;26723;57.478;12.066;2023-03-11T16:58:35;3.00;99.90
40996;DHT22;26723;57.478;12.066;2023-03-11T17:01:44;3.00;99.90
40996;DHT22;26723;57.478;12.066;2023-03-11T17:04:52;3.00;99.90
40996;DHT22;26723;57.478;12.066;2023-03-11T17:08:02;3.00;99.90
40996;DHT22;26723;57.478;12.066;2023-03-11T17:11:16;2.90;99.90
40996;DHT22;26723;57.478;12.066;2023-03-11T17:14:24;2.90;99.90
40996;DHT22;26723;57.478;12.066;2023-03-11T17:17:33;2.80;99.90
40996;DHT22;26723;57.478;12.066;2023-03-11T17:20:41;2.90;99.90
40996;DHT22;26723;57.478;12.066;2023-03-11T17:23:51;2.70;99.90
40996;DHT22;26723;57.478;12.066;2023-03-11T17:27:01;2.60;99.90
40996;DHT22;26723;57.478;12.066;2023-03-11T17:30:11;2.60;99.90
40996;DHT22;26723;57.478;12.066;2023-03-11T17:33:25;2.50;99.90
40996;DHT22;26723;57.478;12.066;2023-03-11T17:36:34;2.30;99.90
40996;DHT22;26723;57.478;12.066;2023-03-11T17:39:43;2.20;99.90
40996;DHT22;26723;57.478;12.066;2023-03-11T17:42:52;2.10;99.90
40996;DHT22;26723;57.478;12.066;2023-03-11T17:46:00;2.10;99.90
40996;DHT22;26723;57.478;12.066;2023-03-11T17:49:12;2.10;99.90
40996;DHT22;26723;57.478;12.066;2023-03-11T17:52:20;2.20;99.90
40996;DHT22;26723;57.478;12.066;2023-03-11T17:55:30;2.30;99.90
40996;DHT22;26723;57.478;12.066;2023-03-11T17:58:39;2.40;99.90
40996;DHT22;26723;57.478;12.066;2023-03-11T18:01:47;2.40;99.90
40996;DHT22;26723;57.478;12.066;2023-03-11T18:04:56;2.40;99.90
40996;DHT22;26723;57.478;12.066;2023-03-11T18:08:04;2.50;99.90
40996;DHT22;26723;57.478;12.066;2023-03-11T18:11:16;2.50;99.90
40996;DHT22;26723;57.478;12.066;2023-03-11T18:14:25;2.60;99.90
40996;DHT22;26723;57.478;12.066;2023-03-11T18:17:33;2.50;99.90
40996;DHT22;26723;57.478;12.066;2023-03-11T18:20:42;2.40;99.90
40996;DHT22;26723;57.478;12.066;2023-03-11T18:23:52;2.40;99.90
40996;DHT22;26723;57.478;12.066;2023-03-11T18:27:02;2.40;99.90
40996;DHT22;26723;57.478;12.066;2023-03-11T18:30:11;2.40;99.90
40996;DHT22;26723;57.478;12.066;2023-03-11T18:33:22;2.30;99.90
40996;DHT22;26723;57.478;12.066;2023-03-11T18:36:32;2.30;99.90
40996;DHT22;26723;57.478;12.066;2023-03-11T18:39:41;2.30;99.90
40996;DHT22;26723;57.478;12.066;2023-03-11T18:42:52;2.30;99.90
40996;DHT22;26723;57.478;12.066;2023-03-11T18:46:02;2.30;99.90
40996;DHT22;26723;57.478;12.066;2023-03-11T18:49:13;2.30;99.90
40996;DHT22;26723;57.478;12.066;2023-03-11T18:52:22;2.20;99.90
40996;DHT22;26723;57.478;12.066;2023-03-11T18:55:33;2.10;99.90
40996;DHT22;26723;57.478;12.066;2023-03-11T18:58:43;2.20;99.90
40996;DHT22;26723;57.478;12.066;2023-03-11T19:01:52;2.20;99.90
40996;DHT22;26723;57.478;12.066;2023-03-11T19:05:01;2.20;99.90
40996;DHT22;26723;57.478;12.066;2023-03-11T19:08:10;2.10;99.90
40996;DHT22;26723;57.478;12.066;2023-03-11T19:11:20;2.10;99.90
40996;DHT22;26723;57.478;12.066;2023-03-11T19:14:30;2.10;99.90
40996;DHT22;26723;57.478;12.066;2023-03-11T19:17:39;2.10;99.90
40996;DHT22;26723;57.478;12.066;2023-03-11T19:20:55;2.10;99.90
40996;DHT22;26723;57.478;12.066;2023-03-11T19:24:09;2.20;99.90
40996;DHT22;26723;57.478;12.066;2023-03-11T19:27:19;2.20;99.90
40996;DHT22;26723;57.478;12.066;2023-03-11T19:30:32;2.20;99.90
40996;DHT22;26723;57.478;12.066;2023-03-11T19:33:51;2.10;99.90
40996;DHT22;26723;57.478;12.066;2023-03-11T19:37:46;2.10;99.90
40996;DHT22;26723;57.478;12.066;2023-03-11T19:41:00;2.10;99.90
40996;DHT22;26723;57.478;12.066;2023-03-11T19:44:09;2.10;99.90
40996;DHT22;26723;57.478;12.066;2023-03-11T19:47:18;2.10;99.90
40996;DHT22;26723;57.478;12.066;2023-03-11T19:50:27;2.10;99.90
40996;DHT22;26723;57.478;12.066;2023-03-11T19:53:36;2.10;99.90
40996;DHT22;26723;57.478;12.066;2023-03-11T19:56:46;2.00;99.90
40996;DHT22;26723;57.478;12.066;2023-03-11T19:59:54;1.90;99.90
40996;DHT22;26723;57.478;12.066;2023-03-11T20:03:04;2.00;99.90
40996;DHT22;26723;57.478;12.066;2023-03-11T20:06:13;2.00;99.90